Aérodrome :
LOGIN :

S'inscrire | Disclaimer

   EN    FR    IT 

 










Légende :    VFR   VFR Marginal   IFR   IFR Intensif   IFR Très Intensif
Visi : 
Plafond : 
>= 8 km
>= 3000ft
5 à 8 km
1000 à 3000 ft
1500m à 5 km
500 à 1000 ft
800 à 1500m
200 à 500 ft
< 800m
< 200 ft
Symboles :   Orages  Brouillard  Fortes neiges  Fortes précipitations  Vent > 20 kt
SIGMETs :   Divers  Orages  Givrage  Turbulence  Onde Orograph.  Cendres Volcan.






- Altitude de l'aérodrome : 1249 ft


ETSN - Neuburg AB

DERNIER METAR :
  • 200831Z 06004KT 0900 FG VV001 09/09 Q1011 RED

METARs EXPIRÉS :
  • 200820Z 06004KT 0600 FG VV001 09/09 Q1011 RED
  • 200749Z 09005KT 0800 FG VV001 09/09 Q1011 RED
  • 200733Z 09005KT 0500 FG VV001 09/09 Q1011 RED
  • 200720Z 07004KT 0300 FG VV001 09/09 Q1011 RED
  • 200620Z 08006KT 0200 FG VV001 09/09 Q1011 RED

TAF TAF ETSN
Valide du 20 à 08h jusqu'au 20 à 17h UTC


200733Z 2008/2017 VRB03KT 0500 FG VV001
BECMG 2008/2010 08005KT 2000 BR BKN003
BECMG 2010/2012 09006KT 9999 NSW FEW010 SCT240 BY ETGL



MET'MAP, la Météo Aéronautique d'un coup d'oeil ! - Copyright ORBIFLY Décembre 2007 - Disclaimer

ORBIFLY MET'MAP TEAM :

Programmation & Développement : Alexandra Zaïnal
Conception & Développement : Baudouin d'Aumeries
Co-Programmation & Développement : Marc-Olivier Méhu
Soutien technique & logistique : Manuel Goepfert

Contact : metmap@orbifly.com




SOURCES & CREDITS :

   NOAA